createdAt,value
2018-04-29T00:02:11.840Z,9.10
2018-04-29T00:04:39.380Z,8.90
2018-04-29T00:07:07.613Z,8.80
2018-04-29T00:09:35.101Z,8.80
2018-04-29T00:12:02.593Z,8.90
2018-04-29T00:14:30.872Z,8.70
2018-04-29T00:16:58.365Z,8.70
2018-04-29T00:19:26.608Z,8.50
2018-04-29T00:21:54.104Z,8.50
2018-04-29T00:24:21.576Z,8.60
2018-04-29T00:26:49.077Z,8.60
2018-04-29T00:29:16.563Z,8.70
2018-04-29T00:31:44.062Z,8.80
2018-04-29T00:34:11.537Z,8.90
2018-04-29T00:36:39.025Z,9.00
2018-04-29T00:39:06.516Z,9.00
2018-04-29T00:41:34.788Z,8.80
2018-04-29T00:44:02.269Z,8.80
2018-04-29T00:46:30.532Z,8.30
2018-04-29T00:48:58.024Z,8.30
2018-04-29T00:51:37.957Z,8.10
2018-04-29T00:54:05.462Z,8.10
2018-04-29T00:56:33.704Z,8.30
2018-04-29T00:59:01.319Z,8.30
2018-04-29T01:01:29.457Z,8.40
2018-04-29T01:03:56.953Z,8.40
2018-04-29T01:06:24.424Z,8.10
2018-04-29T01:08:51.921Z,8.00
2018-04-29T01:11:20.157Z,8.20
2018-04-29T01:13:47.648Z,8.20
2018-04-29T01:16:15.112Z,8.20
2018-04-29T01:18:42.607Z,8.10
2018-04-29T01:21:10.076Z,8.00
2018-04-29T01:23:37.576Z,8.00
2018-04-29T01:26:05.808Z,8.20
2018-04-29T01:28:33.303Z,8.20
2018-04-29T01:31:00.776Z,8.20
2018-04-29T01:33:28.273Z,8.30
2018-04-29T01:35:55.773Z,8.40
2018-04-29T01:38:23.273Z,8.20
2018-04-29T01:40:50.741Z,8.10
2018-04-29T01:43:18.224Z,7.80
2018-04-29T01:45:45.712Z,7.60
2018-04-29T01:48:13.950Z,7.70
2018-04-29T01:50:41.455Z,7.70
2018-04-29T01:53:08.922Z,7.70
2018-04-29T01:55:36.440Z,7.70
2018-04-29T01:58:03.908Z,7.80
2018-04-29T02:00:31.414Z,7.80
2018-04-29T02:02:58.887Z,7.90
2018-04-29T02:05:26.394Z,7.90
2018-04-29T02:07:54.624Z,7.60
2018-04-29T02:10:22.137Z,7.50
2018-04-29T02:12:49.632Z,7.40
2018-04-29T02:15:17.884Z,7.30
2018-04-29T02:17:45.405Z,7.30
2018-04-29T02:20:12.880Z,7.30
2018-04-29T02:22:40.405Z,7.20
2018-04-29T02:25:07.888Z,7.20
2018-04-29T02:27:35.365Z,7.30
2018-04-29T02:30:03.633Z,7.30
2018-04-29T02:32:31.108Z,7.30
2018-04-29T02:34:58.621Z,7.40
2018-04-29T02:37:26.133Z,7.60
2018-04-29T02:39:53.598Z,7.50
2018-04-29T02:42:21.092Z,7.40
2018-04-29T02:44:48.567Z,7.50
2018-04-29T02:47:16.088Z,7.50
2018-04-29T02:49:43.584Z,7.30
2018-04-29T02:52:11.065Z,7.20
2018-04-29T02:54:38.568Z,7.10
2018-04-29T02:57:06.820Z,7.10
2018-04-29T02:59:34.341Z,7.10
2018-04-29T03:02:02.582Z,7.00
2018-04-29T03:04:30.086Z,7.00
2018-04-29T03:06:58.352Z,7.20
2018-04-29T03:09:25.831Z,7.20
2018-04-29T03:11:53.333Z,7.00
2018-04-29T03:14:20.828Z,6.90
2018-04-29T03:16:48.336Z,6.90
2018-04-29T03:19:15.865Z,6.90
2018-04-29T03:21:43.369Z,6.90
2018-04-29T03:24:10.846Z,7.00
2018-04-29T03:26:38.340Z,7.10
2018-04-29T03:29:06.600Z,6.70
2018-04-29T03:31:34.112Z,6.70
2018-04-29T03:34:02.349Z,6.50
2018-04-29T03:36:29.849Z,6.50
2018-04-29T03:38:58.146Z,6.60
2018-04-29T03:41:26.383Z,6.60
2018-04-29T03:43:53.861Z,6.60
2018-04-29T03:46:21.356Z,6.60
2018-04-29T03:48:48.850Z,6.70
2018-04-29T03:51:17.129Z,6.90
2018-04-29T03:53:44.621Z,6.90
2018-04-29T03:56:12.890Z,7.10
2018-04-29T03:58:53.000Z,7.10
2018-04-29T04:01:32.444Z,7.10
2018-04-29T04:04:00.885Z,7.10
2018-04-29T04:06:28.354Z,7.10
2018-04-29T04:08:55.825Z,7.10
2018-04-29T04:11:23.334Z,7.30
2018-04-29T04:13:50.817Z,7.40
2018-04-29T04:16:18.320Z,7.10
2018-04-29T04:18:45.814Z,7.00
2018-04-29T04:21:13.289Z,7.00
2018-04-29T04:23:40.810Z,7.10
2018-04-29T04:26:08.286Z,6.90
2018-04-29T04:28:35.769Z,6.90
2018-04-29T04:31:03.268Z,6.90
2018-04-29T04:33:30.768Z,7.10
2018-04-29T04:35:59.001Z,7.20
2018-04-29T04:38:27.321Z,7.20
2018-04-29T04:40:54.808Z,7.20
2018-04-29T04:43:23.075Z,7.10
2018-04-29T04:45:51.320Z,7.20
2018-04-29T04:48:18.792Z,7.20
2018-04-29T04:50:46.396Z,7.20
2018-04-29T04:53:14.623Z,7.20
2018-04-29T04:55:42.861Z,7.20
2018-04-29T04:58:10.370Z,7.20
2018-04-29T05:00:37.849Z,7.20
2018-04-29T05:03:06.090Z,7.40
2018-04-29T05:05:33.593Z,7.40
2018-04-29T05:08:01.069Z,7.50
2018-04-29T05:10:29.302Z,7.50
2018-04-29T05:12:56.792Z,7.50
2018-04-29T05:18:27.118Z,7.70
2018-04-29T05:20:54.621Z,7.70
2018-04-29T05:23:22.852Z,7.90
2018-04-29T05:25:50.350Z,7.90
2018-04-29T05:28:18.583Z,8.20
2018-04-29T05:30:46.076Z,8.20
2018-04-29T05:33:14.329Z,8.30
2018-04-29T05:35:41.796Z,8.30
2018-04-29T05:38:09.291Z,8.20
2018-04-29T05:40:36.759Z,8.30
2018-04-29T05:43:04.249Z,8.30
2018-04-29T05:45:31.720Z,8.40
2018-04-29T05:47:59.214Z,8.50
2018-04-29T05:50:27.446Z,8.60
2018-04-29T05:52:54.897Z,8.60
2018-04-29T05:55:23.202Z,8.60
2018-04-29T05:57:50.661Z,8.60
2018-04-29T06:00:18.194Z,8.60
2018-04-29T06:02:45.648Z,8.60
2018-04-29T06:05:13.133Z,8.70
2018-04-29T06:07:40.636Z,8.60
2018-04-29T06:10:08.108Z,8.60
2018-04-29T06:12:35.598Z,8.80
2018-04-29T06:15:03.089Z,8.90
2018-04-29T06:17:31.405Z,8.90
2018-04-29T06:19:58.902Z,8.80
2018-04-29T06:22:26.363Z,9.00
2018-04-29T06:24:54.641Z,9.20
2018-04-29T06:27:22.140Z,9.10
2018-04-29T06:29:49.604Z,9.20
2018-04-29T06:32:17.097Z,9.30
2018-04-29T06:34:45.578Z,9.30
2018-04-29T06:37:13.046Z,9.40
2018-04-29T06:39:40.532Z,9.40
2018-04-29T06:42:08.790Z,9.50
2018-04-29T06:44:36.255Z,9.40
2018-04-29T06:47:04.525Z,9.50
2018-04-29T06:49:31.984Z,9.50
2018-04-29T06:52:00.223Z,9.60
2018-04-29T06:54:27.721Z,9.60
2018-04-29T06:56:55.957Z,9.70
2018-04-29T06:59:23.416Z,9.70
2018-04-29T07:01:51.064Z,9.80
2018-04-29T07:04:18.524Z,9.90
2018-04-29T07:06:46.084Z,9.80
2018-04-29T07:09:13.557Z,10.00
2018-04-29T07:11:41.057Z,10.00
2018-04-29T07:14:09.373Z,10.20
2018-04-29T07:16:36.820Z,10.20
2018-04-29T07:19:04.293Z,10.20
2018-04-29T07:21:31.769Z,10.30
2018-04-29T07:23:59.277Z,10.30
2018-04-29T07:26:27.518Z,10.30
2018-04-29T07:28:54.987Z,10.30
2018-04-29T07:31:23.261Z,10.30
2018-04-29T07:33:50.728Z,10.30
2018-04-29T07:36:18.994Z,10.20
2018-04-29T07:38:47.253Z,10.20
2018-04-29T07:41:14.760Z,10.10
2018-04-29T07:43:42.228Z,10.30
2018-04-29T07:46:09.704Z,10.20
2018-04-29T07:48:37.206Z,10.20
2018-04-29T07:51:04.705Z,10.30
2018-04-29T07:53:32.180Z,10.30
2018-04-29T07:55:59.672Z,10.30
2018-04-29T07:58:27.145Z,10.20
2018-04-29T08:00:55.408Z,10.20
2018-04-29T08:03:22.876Z,10.20
2018-04-29T08:05:51.147Z,10.20
2018-04-29T08:08:18.621Z,10.20
2018-04-29T08:10:46.885Z,10.30
2018-04-29T08:13:15.142Z,10.40
2018-04-29T08:15:42.629Z,10.40
2018-04-29T08:18:10.889Z,10.60
2018-04-29T08:20:38.361Z,10.60
2018-04-29T08:23:06.630Z,10.90
2018-04-29T08:25:34.870Z,11.10
2018-04-29T08:28:02.420Z,11.10
2018-04-29T08:30:29.862Z,11.30
2018-04-29T08:32:57.361Z,11.40
2018-04-29T08:35:24.859Z,11.40
2018-04-29T08:37:53.118Z,11.80
2018-04-29T08:40:21.357Z,12.10
2018-04-29T08:42:48.861Z,12.10
2018-04-29T08:45:17.101Z,12.40
2018-04-29T08:47:44.600Z,12.40
2018-04-29T08:50:12.859Z,12.20
2018-04-29T08:52:40.352Z,12.20
2018-04-29T08:55:07.825Z,12.40
2018-04-29T08:57:35.326Z,12.50
2018-04-29T09:00:03.284Z,12.80
2018-04-29T09:02:30.756Z,12.90
2018-04-29T09:04:58.247Z,13.10
2018-04-29T09:07:25.716Z,13.10
2018-04-29T09:09:53.217Z,13.00
2018-04-29T09:12:20.681Z,13.10
2018-04-29T09:14:48.179Z,13.20
2018-04-29T09:17:15.653Z,13.00
2018-04-29T09:19:43.156Z,13.10
2018-04-29T09:22:10.620Z,13.20
2018-04-29T09:24:38.130Z,13.30
2018-04-29T09:27:05.617Z,13.20
2018-04-29T09:29:33.876Z,13.60
2018-04-29T09:32:01.380Z,13.60
2018-04-29T09:34:29.622Z,13.90
2018-04-29T09:36:57.130Z,13.90
2018-04-29T09:39:25.369Z,14.10
2018-04-29T09:41:52.874Z,14.10
2018-04-29T09:44:20.361Z,14.00
2018-04-29T09:46:47.864Z,14.20
2018-04-29T09:49:16.102Z,14.80
2018-04-29T09:51:43.601Z,14.80
2018-04-29T09:54:11.865Z,14.80
2018-04-29T09:56:39.373Z,14.70
2018-04-29T09:59:06.845Z,14.90
2018-04-29T10:01:35.304Z,14.80
2018-04-29T10:04:02.837Z,14.90
2018-04-29T10:06:31.084Z,15.10
2018-04-29T10:08:58.585Z,15.10
2018-04-29T10:11:26.053Z,15.00
2018-04-29T10:13:53.552Z,14.90
2018-04-29T10:16:21.053Z,14.80
2018-04-29T10:18:49.322Z,15.20
2018-04-29T10:21:17.565Z,15.10
2018-04-29T10:23:45.069Z,15.10
2018-04-29T10:26:13.303Z,15.20
2018-04-29T10:28:40.803Z,15.20
2018-04-29T10:31:09.044Z,15.30
2018-04-29T10:33:36.537Z,15.30
2018-04-29T10:36:04.776Z,15.50
2018-04-29T10:38:32.268Z,15.50
2018-04-29T10:41:00.560Z,15.00
2018-04-29T10:43:28.019Z,15.00
2018-04-29T10:45:55.490Z,14.80
2018-04-29T10:48:22.993Z,14.90
2018-04-29T10:50:50.494Z,15.00
2018-04-29T10:53:17.996Z,15.10
2018-04-29T10:55:45.497Z,15.10
2018-04-29T10:58:13.762Z,15.30
2018-04-29T11:00:42.000Z,15.40
2018-04-29T11:03:09.474Z,15.40
2018-04-29T11:05:36.977Z,15.40
2018-04-29T11:08:04.454Z,15.60
2018-04-29T11:10:31.970Z,15.60
2018-04-29T11:13:00.238Z,15.80
2018-04-29T11:15:28.517Z,15.90
2018-04-29T11:17:55.998Z,15.90
2018-04-29T11:20:24.267Z,15.60
2018-04-29T11:22:52.526Z,15.70
2018-04-29T11:25:20.002Z,15.70
2018-04-29T11:27:48.267Z,16.10
2018-04-29T11:30:16.512Z,16.40
2018-04-29T11:32:44.018Z,16.30
2018-04-29T11:35:11.509Z,16.50
2018-04-29T11:37:39.011Z,16.80
2018-04-29T11:40:06.491Z,17.00
2018-04-29T11:42:34.758Z,17.20
2018-04-29T11:45:02.252Z,17.20
2018-04-29T11:47:29.758Z,17.10
2018-04-29T11:49:57.225Z,17.10
2018-04-29T11:52:25.496Z,17.10
2018-04-29T11:54:52.967Z,17.10
2018-04-29T11:57:21.209Z,17.30
2018-04-29T11:59:48.705Z,17.30
2018-04-29T12:02:16.965Z,17.50
2018-04-29T12:04:44.464Z,17.40
2018-04-29T12:07:11.947Z,17.50
2018-04-29T12:09:39.436Z,17.70
2018-04-29T12:12:06.942Z,18.00
2018-04-29T12:14:34.469Z,18.20
2018-04-29T12:17:02.739Z,18.50
2018-04-29T12:19:31.010Z,18.40
2018-04-29T12:21:58.484Z,18.40
2018-04-29T12:24:26.728Z,18.50
2018-04-29T12:26:54.233Z,18.50
2018-04-29T12:29:21.728Z,18.60
2018-04-29T12:31:49.999Z,18.70
2018-04-29T12:34:17.469Z,18.70
2018-04-29T12:36:44.970Z,18.70
2018-04-29T12:39:13.213Z,18.60
2018-04-29T12:41:40.713Z,18.60
2018-04-29T12:44:08.213Z,18.60
2018-04-29T12:46:35.698Z,18.80
2018-04-29T12:49:03.186Z,19.00
2018-04-29T12:51:31.420Z,19.50
2018-04-29T12:53:58.941Z,19.40
2018-04-29T12:56:26.433Z,19.50
2018-04-29T12:58:54.072Z,19.50
2018-04-29T13:01:21.547Z,19.60
2018-04-29T13:03:49.033Z,19.60
2018-04-29T13:06:17.304Z,19.50
2018-04-29T13:08:44.803Z,19.50
2018-04-29T13:11:12.288Z,19.50
2018-04-29T13:13:39.795Z,19.70
2018-04-29T13:16:08.030Z,19.50
2018-04-29T13:18:35.502Z,19.50
2018-04-29T13:21:03.006Z,19.50
2018-04-29T13:23:30.483Z,19.60
2018-04-29T13:25:57.989Z,19.70
2018-04-29T13:28:25.482Z,19.70
2018-04-29T13:30:53.736Z,19.80
2018-04-29T13:33:21.228Z,19.80
2018-04-29T13:35:48.733Z,19.90
2018-04-29T13:38:16.214Z,19.80
2018-04-29T13:40:44.457Z,19.80
2018-04-29T13:43:11.965Z,19.70
2018-04-29T13:45:39.470Z,19.60
2018-04-29T13:48:06.970Z,19.40
2018-04-29T13:50:35.207Z,19.50
2018-04-29T13:53:02.713Z,19.50
2018-04-29T13:55:30.182Z,19.50
2018-04-29T13:57:57.680Z,19.60
2018-04-29T14:00:25.170Z,19.80
2018-04-29T14:02:53.432Z,20.10
2018-04-29T14:05:20.937Z,20.10
2018-04-29T14:07:48.413Z,20.20
2018-04-29T14:10:15.954Z,20.30
2018-04-29T14:12:44.203Z,20.60
2018-04-29T14:15:12.445Z,20.80
2018-04-29T14:17:39.921Z,20.70
2018-04-29T14:20:07.426Z,20.80
2018-04-29T14:22:34.897Z,20.70
2018-04-29T14:25:02.379Z,20.60
2018-04-29T14:27:29.872Z,20.60
2018-04-29T14:29:58.118Z,20.70
2018-04-29T14:32:25.627Z,20.60
2018-04-29T14:34:53.107Z,20.60
2018-04-29T14:37:20.608Z,20.80
2018-04-29T14:39:48.085Z,20.70
2018-04-29T14:42:16.349Z,21.00
2018-04-29T14:44:44.606Z,21.00
2018-04-29T14:47:12.134Z,21.00
2018-04-29T14:49:39.682Z,21.00
2018-04-29T14:52:07.152Z,20.90
2018-04-29T14:54:34.657Z,20.90
2018-04-29T14:57:02.899Z,21.10
2018-04-29T14:59:30.403Z,21.10
2018-04-29T15:01:58.641Z,20.90
2018-04-29T15:04:26.149Z,20.90
2018-04-29T15:06:53.757Z,20.80
2018-04-29T15:09:21.237Z,20.50
2018-04-29T15:11:48.750Z,20.70
2018-04-29T15:14:16.233Z,20.80
2018-04-29T15:16:43.721Z,20.80
2018-04-29T15:19:11.988Z,20.90
2018-04-29T15:21:39.464Z,20.90
2018-04-29T15:24:07.726Z,20.90
2018-04-29T15:26:35.225Z,20.90
2018-04-29T15:29:02.697Z,20.90
2018-04-29T15:31:31.128Z,21.00
2018-04-29T15:33:59.369Z,21.10
2018-04-29T15:36:26.838Z,21.00
2018-04-29T15:38:55.238Z,21.10
2018-04-29T15:41:23.521Z,21.30
2018-04-29T15:43:51.764Z,21.30
2018-04-29T15:46:19.263Z,21.20
2018-04-29T15:48:47.504Z,21.40
2018-04-29T15:51:15.015Z,21.40
2018-04-29T15:53:42.489Z,21.30
2018-04-29T15:56:10.001Z,21.40
2018-04-29T15:58:38.236Z,21.30
2018-04-29T16:01:05.710Z,21.30
2018-04-29T16:03:33.239Z,21.30
2018-04-29T16:06:00.734Z,21.30
2018-04-29T16:08:28.206Z,21.40
2018-04-29T16:10:56.449Z,21.40
2018-04-29T16:13:23.934Z,21.40
2018-04-29T16:15:51.410Z,21.30
2018-04-29T16:18:19.676Z,21.10
2018-04-29T16:20:47.180Z,21.10
2018-04-29T16:23:14.649Z,21.20
2018-04-29T16:25:42.125Z,21.20
2018-04-29T16:28:09.621Z,20.90
2018-04-29T16:30:37.889Z,20.70
2018-04-29T16:33:06.165Z,20.60
2018-04-29T16:35:34.411Z,20.60
2018-04-29T16:38:01.945Z,20.60
2018-04-29T16:40:30.160Z,20.70
2018-04-29T16:42:57.704Z,20.70
2018-04-29T16:45:25.192Z,20.70
2018-04-29T16:47:53.437Z,20.50
2018-04-29T16:50:20.937Z,20.50
2018-04-29T16:52:49.198Z,20.40
2018-04-29T16:55:16.695Z,20.30
2018-04-29T16:57:44.175Z,20.50
2018-04-29T17:00:11.700Z,20.40
2018-04-29T17:02:39.211Z,20.30
2018-04-29T17:05:06.687Z,20.20
2018-04-29T17:07:34.927Z,20.00
2018-04-29T17:10:02.435Z,20.00
2018-04-29T17:12:30.684Z,19.70
2018-04-29T17:14:58.181Z,19.70
2018-04-29T17:17:26.428Z,19.60
2018-04-29T17:19:53.930Z,19.60
2018-04-29T17:22:21.438Z,19.60
2018-04-29T17:24:48.914Z,19.50
2018-04-29T17:27:17.186Z,19.50
2018-04-29T17:29:44.656Z,19.50
2018-04-29T17:32:12.920Z,19.40
2018-04-29T17:34:40.417Z,19.40
2018-04-29T17:37:07.890Z,19.40
2018-04-29T17:39:35.389Z,19.50
2018-04-29T17:42:02.881Z,19.40
2018-04-29T17:44:30.358Z,19.30
2018-04-29T17:46:57.858Z,19.20
2018-04-29T17:49:25.365Z,19.10
2018-04-29T17:51:52.847Z,19.00
2018-04-29T17:54:20.345Z,19.10
2018-04-29T17:56:47.820Z,18.90
2018-04-29T17:59:16.092Z,18.80
2018-04-29T18:01:44.355Z,18.70
2018-04-29T18:04:11.852Z,18.70
2018-04-29T18:06:39.356Z,18.60
2018-04-29T18:09:06.841Z,18.50
2018-04-29T18:11:35.076Z,18.40
2018-04-29T18:14:02.574Z,18.40
2018-04-29T18:16:30.818Z,18.40
2018-04-29T18:18:58.308Z,18.30
2018-04-29T18:21:26.632Z,18.30
2018-04-29T18:23:54.129Z,18.30
2018-04-29T18:26:21.607Z,18.20
2018-04-29T18:28:49.894Z,18.10
2018-04-29T18:31:18.157Z,18.00
2018-04-29T18:33:46.404Z,17.90
2018-04-29T18:36:13.901Z,17.90
2018-04-29T18:38:42.141Z,17.80
2018-04-29T18:41:09.728Z,17.80
2018-04-29T18:43:37.140Z,17.80
2018-04-29T18:46:05.391Z,17.80
2018-04-29T18:48:33.013Z,17.80
2018-04-29T18:51:00.461Z,17.70
2018-04-29T18:53:27.944Z,17.70
2018-04-29T18:55:56.182Z,17.80
2018-04-29T18:58:23.692Z,17.80
2018-04-29T19:00:51.209Z,17.70
2018-04-29T19:03:18.689Z,17.70
2018-04-29T19:05:46.953Z,17.40
2018-04-29T19:08:14.449Z,17.40
2018-04-29T19:10:41.972Z,17.40
2018-04-29T19:13:09.450Z,17.40
2018-04-29T19:15:37.702Z,17.40
2018-04-29T19:18:05.207Z,17.30
2018-04-29T19:20:32.731Z,17.40
2018-04-29T19:23:00.993Z,17.50
2018-04-29T19:25:28.477Z,17.50
2018-04-29T19:27:56.753Z,17.70
2018-04-29T19:30:24.998Z,17.70
2018-04-29T19:32:52.497Z,17.70
2018-04-29T19:35:20.014Z,17.70
2018-04-29T19:37:47.498Z,17.60
2018-04-29T19:40:15.766Z,17.60
2018-04-29T19:42:43.259Z,17.60
2018-04-29T19:45:10.750Z,17.60
2018-04-29T19:47:38.248Z,17.40
2018-04-29T19:50:06.488Z,17.30
2018-04-29T19:52:34.000Z,17.30
2018-04-29T19:55:01.488Z,17.20
2018-04-29T19:57:29.004Z,17.10
2018-04-29T19:59:57.285Z,16.90
2018-04-29T20:02:25.527Z,16.70
2018-04-29T20:04:53.025Z,16.60
2018-04-29T20:07:21.305Z,16.40
2018-04-29T20:09:48.778Z,16.40
2018-04-29T20:12:16.261Z,16.30
2018-04-29T20:14:43.777Z,16.10
2018-04-29T20:17:11.256Z,16.00
2018-04-29T20:19:38.734Z,15.80
2018-04-29T20:22:06.237Z,15.70
2018-04-29T20:24:34.476Z,15.40
2018-04-29T20:27:01.974Z,15.40
2018-04-29T20:29:30.227Z,15.30
2018-04-29T20:31:57.723Z,15.30
2018-04-29T20:34:25.207Z,15.30
2018-04-29T20:36:52.717Z,15.20
2018-04-29T20:39:20.957Z,15.00
2018-04-29T20:41:48.457Z,15.00
2018-04-29T20:44:17.250Z,14.80
2018-04-29T20:47:06.120Z,14.80
2018-04-29T20:49:34.226Z,14.80
2018-04-29T20:52:02.593Z,14.60
2018-04-29T20:54:30.093Z,14.30
2018-04-29T20:56:57.577Z,13.90
2018-04-29T20:59:25.841Z,13.00
2018-04-29T21:01:54.279Z,12.90
2018-04-29T21:04:21.780Z,12.10
2018-04-29T21:06:49.284Z,11.90
2018-04-29T21:09:16.760Z,11.90
2018-04-29T21:11:44.268Z,12.00
2018-04-29T21:14:12.505Z,12.20
2018-04-29T21:16:39.989Z,12.30
2018-04-29T21:19:07.492Z,12.30
2018-04-29T21:21:34.976Z,12.50
2018-04-29T21:24:02.517Z,12.60
2018-04-29T21:26:29.995Z,12.60
2018-04-29T21:28:57.498Z,12.60
2018-04-29T21:31:25.742Z,12.60
2018-04-29T21:33:53.250Z,12.60
2018-04-29T21:36:20.728Z,12.80
2018-04-29T21:38:48.229Z,12.80
2018-04-29T21:41:15.717Z,12.80
2018-04-29T21:43:43.249Z,12.80
2018-04-29T21:46:10.725Z,12.90
2018-04-29T21:48:38.992Z,12.90
2018-04-29T21:51:07.273Z,12.90
2018-04-29T21:53:35.520Z,12.90
2018-04-29T21:56:03.009Z,12.90
2018-04-29T21:58:31.282Z,12.90
2018-04-29T22:00:59.556Z,12.90
2018-04-29T22:03:27.809Z,12.90
2018-04-29T22:05:55.308Z,12.90
2018-04-29T22:08:22.789Z,12.90
2018-04-29T22:10:50.290Z,12.90
2018-04-29T22:13:17.768Z,12.90
2018-04-29T22:15:46.036Z,13.00
2018-04-29T22:18:14.297Z,12.90
2018-04-29T22:20:41.774Z,12.90
2018-04-29T22:23:10.071Z,12.80
2018-04-29T22:25:37.552Z,12.80
2018-04-29T22:28:05.034Z,12.90
2018-04-29T22:30:32.541Z,12.80
2018-04-29T22:33:00.781Z,12.80
2018-04-29T22:35:28.285Z,12.80
2018-04-29T22:37:55.765Z,12.80
2018-04-29T22:40:23.274Z,12.80
2018-04-29T22:42:50.744Z,12.80
2018-04-29T22:45:19.013Z,12.80
2018-04-29T22:47:47.260Z,12.80
2018-04-29T22:50:14.861Z,12.80
2018-04-29T22:52:43.101Z,12.90
2018-04-29T22:55:10.576Z,12.90
2018-04-29T22:57:38.856Z,12.80
2018-04-29T23:00:07.132Z,12.80
2018-04-29T23:02:35.410Z,12.90
2018-04-29T23:05:03.659Z,12.90
2018-04-29T23:07:31.167Z,12.90
2018-04-29T23:09:58.640Z,12.90
2018-04-29T23:12:26.124Z,13.00
2018-04-29T23:14:53.617Z,13.00
2018-04-29T23:17:21.890Z,12.90
2018-04-29T23:19:49.353Z,12.90
2018-04-29T23:22:17.627Z,12.90
2018-04-29T23:24:45.867Z,12.80
2018-04-29T23:27:13.341Z,12.80
2018-04-29T23:29:40.846Z,12.80
2018-04-29T23:32:08.315Z,12.80
2018-04-29T23:34:35.811Z,12.70
2018-04-29T23:37:03.310Z,12.70
2018-04-29T23:39:31.547Z,12.90
2018-04-29T23:41:59.042Z,12.90
2018-04-29T23:44:27.280Z,12.90
2018-04-29T23:46:54.786Z,12.90
2018-04-29T23:49:22.250Z,12.80
2018-04-29T23:51:49.754Z,12.80
2018-04-29T23:54:17.261Z,12.70
2018-04-29T23:56:44.761Z,12.70
2018-04-29T23:59:12.254Z,12.60
